Route Details

Aircraft Information
Group: North America Fleet
Types: B738, B752, B762, B763
Route Data
Distance: 594nm
Duration: 2h 14m
Origin METAR: KBWI 072354Z 00000KT 10SM BKN160 OVC200 06/01 A3017 RMK AO2 SLP218 T00610011 10089 20061 58008
Dest. METAR: KRFD 072354Z 25005KT 10SM CLR 02/M03 A3015 RMK AO2 SLP216 T00221033 10050 20022 53020
Freight Data
(for Feb 8, 2023)
Load Factor:
56%
Manifested Cargo: 67,106lbs
Financial History
Total Freight: 680,199lbs
Average Load: 0lbs/flt
Fuel Used: 145,738lbs
Avg. Fuel Used: 0lbs/flt
Fuel Expense: $71,446
Avg. Fuel Expense: $0
Avg. Fuel Cost: $0/lbs
Total Gross Income: $1,506,375
Pilot Pay: $1,652
Total Expenses: $175,507
Total Revenue: $1,256,097
Average Revenue: $0

Capitol Logistics 306




KBWI
Baltimore/Washington International Airport
Baltimore, Maryland
KRFD
Chicago/Rockford International Airport
Rockford, Illinois